»·PEaware :: DAL465 KLAX-KSAN

DAL465 :: KLAX-KSAN

FLIGHT INFORMATION

Flight Status: Arrived
Operator:
Delta Air Lines
More flights by this operator :: More flights under this callsign
Pilot: Sergei F. (8485)
Aircraft: BOEING 737-300
(B733)
More flights by this aircraft type
Origin: KLAX Los Angeles Intl
United States
Destination: KSAN San Diego Intl-Lindbergh
United States
More flights between these airports :: More routes between these airports
Route: +LAXX1 MZB
File this flight plan on PilotEdge
Remarks:
Altitude:
(Current/Filed)
11,000ft
Speed:
(Current/Filed)
300kts
Departed: 25-Nov-17 07:33 PM
Arrived: 25-Nov-17 08:08 PM
Distance/Time
Traveled:
586nm/0:35
Distance/Time
To Go:
Arrived

Flight Plot

Page will automatically refresh every two minutes.

Flight plan parsing failed; only flown route is shown


Map Options




Map Legend


Flown Route
Filed Route
Departure Airport
Arrival Airport
Navaid (VOR, NDB)
Fix

Horizontal Profiles

Position Reports

Time Latitude Longitude Heading Altitude Ground
Speed
25-Nov-17 19:03 33.947182 -118.406602 217 119ft 0kts
25-Nov-17 19:04 33.947182 -118.406602 217 119ft 0kts
25-Nov-17 19:05 33.947182 -118.406602 217 119ft 0kts
25-Nov-17 19:06 33.947182 -118.406602 217 119ft 0kts
25-Nov-17 19:07 33.947182 -118.406602 217 119ft 0kts
25-Nov-17 19:08 33.947182 -118.406602 217 119ft 0kts
25-Nov-17 19:09 33.947182 -118.406602 217 119ft 0kts
25-Nov-17 19:10 33.947182 -118.406602 217 119ft 0kts
25-Nov-17 19:11 33.947182 -118.406602 217 119ft 0kts
25-Nov-17 19:12 33.947182 -118.406602 217 119ft 0kts
25-Nov-17 19:13 33.947182 -118.406602 217 119ft 0kts
25-Nov-17 19:14 33.947182 -118.406602 217 119ft 0kts
25-Nov-17 19:15 33.947182 -118.406602 217 119ft 0kts
25-Nov-17 19:16 33.947182 -118.406602 217 119ft 0kts
25-Nov-17 19:17 33.947182 -118.406602 217 119ft 0kts
25-Nov-17 19:18 33.947182 -118.406602 217 119ft 0kts
25-Nov-17 19:19 33.947182 -118.406602 217 119ft 0kts
25-Nov-17 19:20 33.947182 -118.406602 217 119ft 0kts
25-Nov-17 19:21 33.947182 -118.406602 217 119ft 0kts
25-Nov-17 19:22 33.947190 -118.406594 217 119ft 0kts
25-Nov-17 19:23 33.947375 -118.406486 127 119ft 0kts
25-Nov-17 19:24 33.947703 -118.407004 127 119ft 0kts
25-Nov-17 19:25 33.947713 -118.407014 78 119ft 0kts
25-Nov-17 19:26 33.947713 -118.407014 78 119ft 0kts
25-Nov-17 19:27 33.947713 -118.407014 78 119ft 0kts
25-Nov-17 19:28 33.947713 -118.407010 77 119ft 0kts
25-Nov-17 19:29 33.948285 -118.405967 3 119ft 5kts
25-Nov-17 19:30 33.948946 -118.403058 83 117ft 9kts
25-Nov-17 19:31 33.949210 -118.401834 40 115ft 0kts
25-Nov-17 19:32 33.949210 -118.401834 40 115ft 0kts
25-Nov-17 19:33 33.949210 -118.401834 40 115ft 0kts
25-Nov-17 19:34 33.949210 -118.401834 40 115ft 0kts
25-Nov-17 19:35 33.949210 -118.401834 40 115ft 0kts
25-Nov-17 19:36 33.949244 -118.401801 38 115ft 2kts
25-Nov-17 19:37 33.950112 -118.402460 263 115ft 0kts
25-Nov-17 19:38 33.948473 -118.424288 267 368ft 160kts
25-Nov-17 19:39 33.944080 -118.476569 262 3159ft 168kts
25-Nov-17 19:40 33.939397 -118.530474 262 5010ft 173kts
25-Nov-17 19:41 33.930306 -118.582388 212 5063ft 169kts
25-Nov-17 19:42 33.882112 -118.577654 171 7428ft 198kts
25-Nov-17 19:43 33.826748 -118.564710 171 10225ft 221kts
25-Nov-17 19:44 33.759145 -118.543914 148 10930ft 284kts
25-Nov-17 19:45 33.706517 -118.470123 131 10953ft 313kts
25-Nov-17 19:46 33.651807 -118.382007 126 10974ft 346kts
25-Nov-17 19:47 33.598394 -118.288158 126 10965ft 345kts
25-Nov-17 19:48 33.550737 -118.203606 126 11003ft 278kts
25-Nov-17 19:49 33.510805 -118.131728 126 10978ft 271kts
25-Nov-17 19:50 33.469802 -118.057764 126 10965ft 270kts
25-Nov-17 19:51 33.428816 -117.983727 126 10954ft 270kts
25-Nov-17 19:52 33.388944 -117.911802 126 10962ft 272kts
25-Nov-17 19:53 33.347864 -117.837878 126 10965ft 272kts
25-Nov-17 19:54 33.306758 -117.764148 126 10970ft 273kts
25-Nov-17 19:55 33.264681 -117.688890 126 10973ft 273kts
25-Nov-17 19:56 33.222811 -117.614023 126 10973ft 273kts
25-Nov-17 19:57 33.180747 -117.538746 126 10971ft 273kts
25-Nov-17 19:58 33.138884 -117.463923 128 10964ft 272kts
25-Nov-17 19:59 33.074389 -117.442693 181 10080ft 228kts
25-Nov-17 20:00 33.014138 -117.441801 181 9239ft 202kts
25-Nov-17 20:01 32.961549 -117.441206 181 8314ft 182kts
25-Nov-17 20:02 32.911413 -117.440842 181 6997ft 179kts
25-Nov-17 20:03 32.864418 -117.440748 181 5828ft 162kts
25-Nov-17 20:04 32.820536 -117.449086 191 4233ft 158kts
25-Nov-17 20:05 32.779135 -117.456733 156 2917ft 148kts
25-Nov-17 20:06 32.778118 -117.415154 72 3032ft 148kts
25-Nov-17 20:07 32.780494 -117.377401 102 2067ft 139kts
25-Nov-17 20:08 32.770668 -117.341920 108 1966ft 137kts
25-Nov-17 20:09 32.761117 -117.304018 105 1958ft 136kts
25-Nov-17 20:10 32.751389 -117.263384 106 1195ft 130kts
25-Nov-17 20:11 32.741435 -117.222672 105 480ft 134kts
25-Nov-17 20:12 32.732627 -117.185804 105 19ft 83kts
25-Nov-17 20:13 32.730745 -117.181221 215 17ft 8kts
25-Nov-17 20:14 32.731368 -117.184870 285 17ft 14kts
25-Nov-17 20:15 32.732628 -117.190088 286 19ft 18kts
25-Nov-17 20:16 32.733754 -117.194744 286 20ft 12kts
25-Nov-17 20:17 32.733713 -117.197719 253 17ft 5kts
25-Nov-17 20:18 32.733690 -117.197813 254 17ft 0kts
25-Nov-17 20:19 32.733690 -117.197813 254 17ft 0kts
25-Nov-17 20:21 35.046954 -106.618412 34 5312ft 0kts
25-Nov-17 20:22 35.046954 -106.618412 34 5312ft 0kts
25-Nov-17 20:23 35.046920 -106.616912 11 5315ft 0kts
25-Nov-17 20:24 35.046920 -106.616912 11 5315ft 0kts
25-Nov-17 20:25 35.046920 -106.616912 11 5315ft 0kts
25-Nov-17 20:26 35.046920 -106.616912 11 5315ft 0kts

Navigation Log

Ident Type
Flight plan parsing failed, navigation log unavailable